sensor_id;sensor_type;location;lat;lon;timestamp;P1;durP1;ratioP1;P2;durP2;ratioP2
57746;SDS011;43580;44.014;20.466;2023-11-22T00:00:26;29.83;;;20.08;;
57746;SDS011;43580;44.014;20.466;2023-11-22T00:02:52;56.90;;;37.97;;
57746;SDS011;43580;44.014;20.466;2023-11-22T00:05:18;59.97;;;40.60;;
57746;SDS011;43580;44.014;20.466;2023-11-22T00:07:44;51.92;;;34.33;;
57746;SDS011;43580;44.014;20.466;2023-11-22T00:10:13;58.08;;;34.25;;
57746;SDS011;43580;44.014;20.466;2023-11-22T00:12:39;47.20;;;30.67;;
57746;SDS011;43580;44.014;20.466;2023-11-22T00:15:10;44.22;;;27.05;;
57746;SDS011;43580;44.014;20.466;2023-11-22T00:17:36;29.30;;;21.27;;
57746;SDS011;43580;44.014;20.466;2023-11-22T00:20:05;30.15;;;21.58;;
57746;SDS011;43580;44.014;20.466;2023-11-22T00:22:33;31.73;;;21.35;;
57746;SDS011;43580;44.014;20.466;2023-11-22T00:24:59;41.72;;;25.25;;
57746;SDS011;43580;44.014;20.466;2023-11-22T00:27:26;28.70;;;21.02;;
57746;SDS011;43580;44.014;20.466;2023-11-22T00:29:52;23.30;;;17.40;;
57746;SDS011;43580;44.014;20.466;2023-11-22T00:32:21;25.98;;;17.40;;
57746;SDS011;43580;44.014;20.466;2023-11-22T00:34:47;19.58;;;15.40;;
57746;SDS011;43580;44.014;20.466;2023-11-22T00:37:13;22.00;;;16.70;;
57746;SDS011;43580;44.014;20.466;2023-11-22T00:39:40;46.53;;;29.10;;
57746;SDS011;43580;44.014;20.466;2023-11-22T00:42:06;35.83;;;24.17;;
57746;SDS011;43580;44.014;20.466;2023-11-22T00:44:32;19.65;;;15.07;;
57746;SDS011;43580;44.014;20.466;2023-11-22T00:46:59;17.15;;;11.77;;
57746;SDS011;43580;44.014;20.466;2023-11-22T00:49:25;23.50;;;16.67;;
57746;SDS011;43580;44.014;20.466;2023-11-22T00:51:51;19.70;;;15.90;;
57746;SDS011;43580;44.014;20.466;2023-11-22T00:54:19;29.02;;;21.23;;
57746;SDS011;43580;44.014;20.466;2023-11-22T00:56:48;28.08;;;20.48;;
57746;SDS011;43580;44.014;20.466;2023-11-22T00:59:14;25.02;;;17.98;;
57746;SDS011;43580;44.014;20.466;2023-11-22T01:01:40;23.98;;;18.15;;
57746;SDS011;43580;44.014;20.466;2023-11-22T01:04:06;61.65;;;35.90;;
57746;SDS011;43580;44.014;20.466;2023-11-22T01:06:33;56.78;;;35.15;;
57746;SDS011;43580;44.014;20.466;2023-11-22T01:08:59;37.55;;;26.17;;
57746;SDS011;43580;44.014;20.466;2023-11-22T01:11:26;34.63;;;25.27;;
57746;SDS011;43580;44.014;20.466;2023-11-22T01:13:52;37.80;;;27.23;;
57746;SDS011;43580;44.014;20.466;2023-11-22T01:16:18;37.28;;;27.63;;
57746;SDS011;43580;44.014;20.466;2023-11-22T01:18:44;45.13;;;31.30;;
57746;SDS011;43580;44.014;20.466;2023-11-22T01:21:11;39.22;;;30.90;;
57746;SDS011;43580;44.014;20.466;2023-11-22T01:23:37;38.95;;;29.73;;
57746;SDS011;43580;44.014;20.466;2023-11-22T01:26:03;39.78;;;31.50;;
57746;SDS011;43580;44.014;20.466;2023-11-22T01:28:30;37.78;;;29.10;;
57746;SDS011;43580;44.014;20.466;2023-11-22T01:30:59;34.63;;;26.50;;
57746;SDS011;43580;44.014;20.466;2023-11-22T01:33:28;31.92;;;25.33;;
57746;SDS011;43580;44.014;20.466;2023-11-22T01:35:54;27.67;;;21.73;;
57746;SDS011;43580;44.014;20.466;2023-11-22T01:38:21;29.65;;;23.13;;
57746;SDS011;43580;44.014;20.466;2023-11-22T01:40:48;25.33;;;19.15;;
57746;SDS011;43580;44.014;20.466;2023-11-22T01:43:18;24.48;;;19.80;;
57746;SDS011;43580;44.014;20.466;2023-11-22T01:45:45;21.10;;;16.02;;
57746;SDS011;43580;44.014;20.466;2023-11-22T01:48:11;22.42;;;16.65;;
57746;SDS011;43580;44.014;20.466;2023-11-22T01:50:38;20.25;;;15.88;;
57746;SDS011;43580;44.014;20.466;2023-11-22T01:53:06;22.40;;;18.40;;
57746;SDS011;43580;44.014;20.466;2023-11-22T01:55:32;22.13;;;16.55;;
57746;SDS011;43580;44.014;20.466;2023-11-22T01:57:58;24.73;;;20.13;;
57746;SDS011;43580;44.014;20.466;2023-11-22T02:00:24;30.58;;;24.33;;
57746;SDS011;43580;44.014;20.466;2023-11-22T02:02:52;32.78;;;24.83;;
57746;SDS011;43580;44.014;20.466;2023-11-22T02:05:18;36.10;;;26.13;;
57746;SDS011;43580;44.014;20.466;2023-11-22T02:07:47;37.45;;;26.88;;
57746;SDS011;43580;44.014;20.466;2023-11-22T02:10:13;32.00;;;23.52;;
57746;SDS011;43580;44.014;20.466;2023-11-22T02:12:41;30.23;;;23.55;;
57746;SDS011;43580;44.014;20.466;2023-11-22T02:15:08;27.45;;;20.08;;
57746;SDS011;43580;44.014;20.466;2023-11-22T02:17:34;23.58;;;16.35;;
57746;SDS011;43580;44.014;20.466;2023-11-22T02:20:01;21.73;;;15.55;;
57746;SDS011;43580;44.014;20.466;2023-11-22T02:22:31;20.77;;;16.88;;
57746;SDS011;43580;44.014;20.466;2023-11-22T02:24:57;23.48;;;17.77;;
57746;SDS011;43580;44.014;20.466;2023-11-22T02:27:24;22.10;;;16.50;;
57746;SDS011;43580;44.014;20.466;2023-11-22T02:29:50;18.65;;;14.25;;
57746;SDS011;43580;44.014;20.466;2023-11-22T02:32:16;22.45;;;16.70;;
57746;SDS011;43580;44.014;20.466;2023-11-22T02:34:43;18.63;;;14.88;;
57746;SDS011;43580;44.014;20.466;2023-11-22T02:37:11;19.95;;;15.15;;
57746;SDS011;43580;44.014;20.466;2023-11-22T02:39:50;57.78;;;32.88;;
57746;SDS011;43580;44.014;20.466;2023-11-22T02:42:20;88.78;;;47.22;;
57746;SDS011;43580;44.014;20.466;2023-11-22T02:44:46;177.30;;;84.20;;
57746;SDS011;43580;44.014;20.466;2023-11-22T02:47:12;165.20;;;77.75;;
57746;SDS011;43580;44.014;20.466;2023-11-22T02:49:38;191.23;;;90.47;;
57746;SDS011;43580;44.014;20.466;2023-11-22T02:52:05;111.20;;;55.78;;
57746;SDS011;43580;44.014;20.466;2023-11-22T02:54:31;63.38;;;36.13;;
57746;SDS011;43580;44.014;20.466;2023-11-22T02:56:57;66.38;;;36.63;;
57746;SDS011;43580;44.014;20.466;2023-11-22T02:59:23;55.67;;;32.15;;
57746;SDS011;43580;44.014;20.466;2023-11-22T03:01:51;46.75;;;27.95;;
57746;SDS011;43580;44.014;20.466;2023-11-22T03:04:17;58.97;;;34.38;;
57746;SDS011;43580;44.014;20.466;2023-11-22T03:06:43;75.75;;;46.30;;
57746;SDS011;43580;44.014;20.466;2023-11-22T03:09:10;64.22;;;38.58;;
57746;SDS011;43580;44.014;20.466;2023-11-22T03:11:38;51.70;;;32.85;;
57746;SDS011;43580;44.014;20.466;2023-11-22T03:14:04;46.95;;;30.88;;
57746;SDS011;43580;44.014;20.466;2023-11-22T03:16:30;50.90;;;34.53;;
57746;SDS011;43580;44.014;20.466;2023-11-22T03:18:56;49.20;;;32.53;;
57746;SDS011;43580;44.014;20.466;2023-11-22T03:21:23;43.70;;;29.25;;
57746;SDS011;43580;44.014;20.466;2023-11-22T03:23:52;34.88;;;23.88;;
57746;SDS011;43580;44.014;20.466;2023-11-22T03:26:18;26.05;;;18.38;;
57746;SDS011;43580;44.014;20.466;2023-11-22T03:28:44;19.83;;;14.85;;
57746;SDS011;43580;44.014;20.466;2023-11-22T03:31:13;12.00;;;8.98;;
57746;SDS011;43580;44.014;20.466;2023-11-22T03:33:39;21.55;;;14.48;;
57746;SDS011;43580;44.014;20.466;2023-11-22T03:36:07;32.92;;;23.30;;
57746;SDS011;43580;44.014;20.466;2023-11-22T03:38:36;34.47;;;23.58;;
57746;SDS011;43580;44.014;20.466;2023-11-22T03:41:02;26.90;;;18.45;;
57746;SDS011;43580;44.014;20.466;2023-11-22T03:43:28;29.33;;;19.38;;
57746;SDS011;43580;44.014;20.466;2023-11-22T03:45:54;25.92;;;19.85;;
57746;SDS011;43580;44.014;20.466;2023-11-22T03:48:20;27.95;;;20.90;;
57746;SDS011;43580;44.014;20.466;2023-11-22T03:50:48;27.33;;;19.63;;
57746;SDS011;43580;44.014;20.466;2023-11-22T03:53:14;27.52;;;18.40;;
57746;SDS011;43580;44.014;20.466;2023-11-22T03:55:52;24.65;;;16.77;;
57746;SDS011;43580;44.014;20.466;2023-11-22T03:58:18;19.70;;;14.02;;
57746;SDS011;43580;44.014;20.466;2023-11-22T04:00:44;16.65;;;13.05;;
57746;SDS011;43580;44.014;20.466;2023-11-22T04:03:10;16.35;;;11.57;;
57746;SDS011;43580;44.014;20.466;2023-11-22T04:05:37;14.25;;;10.43;;
57746;SDS011;43580;44.014;20.466;2023-11-22T04:08:03;11.85;;;8.80;;
57746;SDS011;43580;44.014;20.466;2023-11-22T04:10:29;10.55;;;8.10;;
57746;SDS011;43580;44.014;20.466;2023-11-22T04:12:58;10.63;;;7.85;;
57746;SDS011;43580;44.014;20.466;2023-11-22T04:15:24;11.55;;;8.38;;
57746;SDS011;43580;44.014;20.466;2023-11-22T04:17:51;19.58;;;11.65;;
57746;SDS011;43580;44.014;20.466;2023-11-22T04:20:19;19.90;;;12.13;;
57746;SDS011;43580;44.014;20.466;2023-11-22T04:22:45;18.23;;;11.25;;
57746;SDS011;43580;44.014;20.466;2023-11-22T04:25:11;23.70;;;13.05;;
57746;SDS011;43580;44.014;20.466;2023-11-22T04:27:41;32.15;;;16.17;;
57746;SDS011;43580;44.014;20.466;2023-11-22T04:30:07;29.60;;;14.57;;
57746;SDS011;43580;44.014;20.466;2023-11-22T04:32:38;25.13;;;14.65;;
57746;SDS011;43580;44.014;20.466;2023-11-22T04:35:04;37.42;;;18.67;;
57746;SDS011;43580;44.014;20.466;2023-11-22T04:37:30;19.42;;;11.52;;
57746;SDS011;43580;44.014;20.466;2023-11-22T04:40:00;13.32;;;8.15;;
57746;SDS011;43580;44.014;20.466;2023-11-22T04:42:26;49.85;;;23.88;;
57746;SDS011;43580;44.014;20.466;2023-11-22T04:44:53;34.88;;;18.58;;
57746;SDS011;43580;44.014;20.466;2023-11-22T04:47:22;32.20;;;16.08;;
57746;SDS011;43580;44.014;20.466;2023-11-22T04:49:48;42.78;;;22.95;;
57746;SDS011;43580;44.014;20.466;2023-11-22T04:52:17;41.30;;;22.30;;
57746;SDS011;43580;44.014;20.466;2023-11-22T04:54:43;32.15;;;18.42;;
57746;SDS011;43580;44.014;20.466;2023-11-22T04:57:09;22.08;;;13.10;;
57746;SDS011;43580;44.014;20.466;2023-11-22T04:59:35;31.08;;;17.10;;
57746;SDS011;43580;44.014;20.466;2023-11-22T05:02:03;35.80;;;19.23;;
57746;SDS011;43580;44.014;20.466;2023-11-22T05:04:29;21.02;;;12.60;;
57746;SDS011;43580;44.014;20.466;2023-11-22T05:06:55;15.30;;;9.88;;
57746;SDS011;43580;44.014;20.466;2023-11-22T05:09:21;14.05;;;8.70;;
57746;SDS011;43580;44.014;20.466;2023-11-22T05:11:47;11.23;;;7.97;;
57746;SDS011;43580;44.014;20.466;2023-11-22T05:14:14;13.40;;;8.45;;
57746;SDS011;43580;44.014;20.466;2023-11-22T05:16:40;10.65;;;6.75;;
57746;SDS011;43580;44.014;20.466;2023-11-22T05:19:06;11.05;;;6.70;;
57746;SDS011;43580;44.014;20.466;2023-11-22T05:21:33;11.55;;;7.72;;
57746;SDS011;43580;44.014;20.466;2023-11-22T05:23:59;17.23;;;9.07;;
57746;SDS011;43580;44.014;20.466;2023-11-22T05:26:25;20.50;;;11.48;;
57746;SDS011;43580;44.014;20.466;2023-11-22T05:28:52;13.70;;;8.73;;
57746;SDS011;43580;44.014;20.466;2023-11-22T05:31:21;13.55;;;8.85;;
57746;SDS011;43580;44.014;20.466;2023-11-22T05:33:48;15.73;;;7.53;;
57746;SDS011;43580;44.014;20.466;2023-11-22T05:36:14;11.70;;;7.47;;
57746;SDS011;43580;44.014;20.466;2023-11-22T05:38:41;13.65;;;9.07;;
57746;SDS011;43580;44.014;20.466;2023-11-22T05:41:08;24.63;;;15.52;;
57746;SDS011;43580;44.014;20.466;2023-11-22T05:43:34;25.90;;;17.92;;
57746;SDS011;43580;44.014;20.466;2023-11-22T05:46:02;25.58;;;16.05;;
57746;SDS011;43580;44.014;20.466;2023-11-22T05:48:30;23.58;;;15.43;;
57746;SDS011;43580;44.014;20.466;2023-11-22T05:50:56;24.80;;;14.10;;
57746;SDS011;43580;44.014;20.466;2023-11-22T05:53:22;23.77;;;17.38;;
57746;SDS011;43580;44.014;20.466;2023-11-22T05:55:51;32.70;;;18.42;;
57746;SDS011;43580;44.014;20.466;2023-11-22T05:58:17;30.70;;;18.25;;
57746;SDS011;43580;44.014;20.466;2023-11-22T06:00:44;23.10;;;14.35;;
57746;SDS011;43580;44.014;20.466;2023-11-22T06:03:11;23.10;;;13.40;;
57746;SDS011;43580;44.014;20.466;2023-11-22T06:05:37;17.60;;;11.70;;
57746;SDS011;43580;44.014;20.466;2023-11-22T06:08:04;18.92;;;12.57;;
57746;SDS011;43580;44.014;20.466;2023-11-22T06:10:34;16.15;;;11.48;;
57746;SDS011;43580;44.014;20.466;2023-11-22T06:13:00;15.70;;;10.95;;
57746;SDS011;43580;44.014;20.466;2023-11-22T06:15:26;19.50;;;12.45;;
57746;SDS011;43580;44.014;20.466;2023-11-22T06:17:52;15.57;;;11.65;;
57746;SDS011;43580;44.014;20.466;2023-11-22T06:20:18;20.65;;;14.45;;
57746;SDS011;43580;44.014;20.466;2023-11-22T06:22:46;20.35;;;16.27;;
57746;SDS011;43580;44.014;20.466;2023-11-22T06:25:15;19.35;;;14.80;;
57746;SDS011;43580;44.014;20.466;2023-11-22T06:27:41;16.92;;;11.82;;
57746;SDS011;43580;44.014;20.466;2023-11-22T06:30:07;18.23;;;14.13;;
57746;SDS011;43580;44.014;20.466;2023-11-22T06:32:35;23.52;;;15.77;;
57746;SDS011;43580;44.014;20.466;2023-11-22T06:35:01;24.02;;;17.88;;
57746;SDS011;43580;44.014;20.466;2023-11-22T06:37:28;19.02;;;13.32;;
57746;SDS011;43580;44.014;20.466;2023-11-22T06:39:54;17.27;;;12.93;;
57746;SDS011;43580;44.014;20.466;2023-11-22T06:42:22;44.20;;;29.73;;
57746;SDS011;43580;44.014;20.466;2023-11-22T06:44:48;35.80;;;24.52;;
57746;SDS011;43580;44.014;20.466;2023-11-22T06:47:18;22.30;;;17.17;;
57746;SDS011;43580;44.014;20.466;2023-11-22T06:49:47;20.73;;;15.95;;
57746;SDS011;43580;44.014;20.466;2023-11-22T06:52:14;19.08;;;14.57;;
57746;SDS011;43580;44.014;20.466;2023-11-22T06:54:42;20.08;;;14.25;;
57746;SDS011;43580;44.014;20.466;2023-11-22T06:57:10;78.30;;;68.63;;
57746;SDS011;43580;44.014;20.466;2023-11-22T06:59:36;127.28;;;114.00;;
57746;SDS011;43580;44.014;20.466;2023-11-22T07:02:04;57.65;;;51.58;;
57746;SDS011;43580;44.014;20.466;2023-11-22T07:04:32;38.95;;;28.77;;
57746;SDS011;43580;44.014;20.466;2023-11-22T07:06:59;38.20;;;31.30;;
57746;SDS011;43580;44.014;20.466;2023-11-22T07:09:27;32.42;;;24.45;;
57746;SDS011;43580;44.014;20.466;2023-11-22T07:11:53;33.38;;;23.88;;
57746;SDS011;43580;44.014;20.466;2023-11-22T07:14:19;31.13;;;22.58;;
57746;SDS011;43580;44.014;20.466;2023-11-22T07:16:46;34.95;;;23.20;;
57746;SDS011;43580;44.014;20.466;2023-11-22T07:19:12;28.35;;;21.00;;
57746;SDS011;43580;44.014;20.466;2023-11-22T07:21:39;43.22;;;29.08;;
57746;SDS011;43580;44.014;20.466;2023-11-22T07:24:05;63.20;;;38.47;;
57746;SDS011;43580;44.014;20.466;2023-11-22T07:26:34;51.35;;;33.95;;
57746;SDS011;43580;44.014;20.466;2023-11-22T07:29:00;41.22;;;28.33;;
57746;SDS011;43580;44.014;20.466;2023-11-22T07:31:26;42.47;;;30.05;;
57746;SDS011;43580;44.014;20.466;2023-11-22T07:33:52;48.25;;;33.83;;
57746;SDS011;43580;44.014;20.466;2023-11-22T07:36:20;60.30;;;41.45;;
57746;SDS011;43580;44.014;20.466;2023-11-22T07:38:46;46.83;;;33.08;;
57746;SDS011;43580;44.014;20.466;2023-11-22T07:41:13;21.92;;;15.50;;
57746;SDS011;43580;44.014;20.466;2023-11-22T07:43:40;20.98;;;15.02;;
57746;SDS011;43580;44.014;20.466;2023-11-22T07:46:07;25.73;;;17.98;;
57746;SDS011;43580;44.014;20.466;2023-11-22T07:48:38;24.75;;;18.02;;
57746;SDS011;43580;44.014;20.466;2023-11-22T07:51:06;23.35;;;17.58;;
57746;SDS011;43580;44.014;20.466;2023-11-22T07:53:32;27.05;;;21.00;;
57746;SDS011;43580;44.014;20.466;2023-11-22T07:56:02;23.95;;;17.27;;
57746;SDS011;43580;44.014;20.466;2023-11-22T07:58:31;25.92;;;18.25;;
57746;SDS011;43580;44.014;20.466;2023-11-22T08:01:00;23.33;;;17.85;;
57746;SDS011;43580;44.014;20.466;2023-11-22T08:03:30;19.23;;;13.60;;
57746;SDS011;43580;44.014;20.466;2023-11-22T08:05:56;17.23;;;12.55;;
57746;SDS011;43580;44.014;20.466;2023-11-22T08:08:22;17.23;;;11.95;;
57746;SDS011;43580;44.014;20.466;2023-11-22T08:10:49;26.10;;;16.42;;
57746;SDS011;43580;44.014;20.466;2023-11-22T08:13:18;24.02;;;15.77;;
57746;SDS011;43580;44.014;20.466;2023-11-22T08:15:50;22.20;;;15.52;;
57746;SDS011;43580;44.014;20.466;2023-11-22T08:18:18;19.90;;;14.35;;
57746;SDS011;43580;44.014;20.466;2023-11-22T08:20:44;23.15;;;16.73;;
57746;SDS011;43580;44.014;20.466;2023-11-22T08:23:10;21.60;;;14.80;;
57746;SDS011;43580;44.014;20.466;2023-11-22T08:25:38;27.08;;;19.05;;
57746;SDS011;43580;44.014;20.466;2023-11-22T08:28:04;24.83;;;16.60;;
57746;SDS011;43580;44.014;20.466;2023-11-22T08:30:33;23.27;;;16.50;;
57746;SDS011;43580;44.014;20.466;2023-11-22T08:33:00;24.50;;;18.00;;
57746;SDS011;43580;44.014;20.466;2023-11-22T08:35:27;24.67;;;15.52;;
57746;SDS011;43580;44.014;20.466;2023-11-22T08:37:53;22.70;;;14.10;;
57746;SDS011;43580;44.014;20.466;2023-11-22T08:40:22;20.55;;;13.88;;
57746;SDS011;43580;44.014;20.466;2023-11-22T08:42:49;21.50;;;14.07;;
57746;SDS011;43580;44.014;20.466;2023-11-22T08:45:15;20.42;;;13.55;;
57746;SDS011;43580;44.014;20.466;2023-11-22T08:47:41;21.50;;;12.75;;
57746;SDS011;43580;44.014;20.466;2023-11-22T08:50:08;20.83;;;11.77;;
57746;SDS011;43580;44.014;20.466;2023-11-22T08:52:37;21.40;;;12.80;;
57746;SDS011;43580;44.014;20.466;2023-11-22T08:55:07;29.55;;;17.38;;
57746;SDS011;43580;44.014;20.466;2023-11-22T08:57:36;94.45;;;59.80;;
57746;SDS011;43580;44.014;20.466;2023-11-22T09:00:03;85.57;;;57.20;;
57746;SDS011;43580;44.014;20.466;2023-11-22T09:02:34;86.85;;;57.60;;
57746;SDS011;43580;44.014;20.466;2023-11-22T09:05:13;72.70;;;46.22;;
57746;SDS011;43580;44.014;20.466;2023-11-22T09:07:41;29.88;;;19.98;;
57746;SDS011;43580;44.014;20.466;2023-11-22T09:10:09;31.77;;;22.20;;
57746;SDS011;43580;44.014;20.466;2023-11-22T09:12:39;34.45;;;23.67;;
57746;SDS011;43580;44.014;20.466;2023-11-22T09:15:06;27.67;;;20.17;;
57746;SDS011;43580;44.014;20.466;2023-11-22T09:17:38;39.33;;;28.92;;
57746;SDS011;43580;44.014;20.466;2023-11-22T09:20:17;48.53;;;31.30;;
57746;SDS011;43580;44.014;20.466;2023-11-22T09:22:44;62.13;;;38.88;;
57746;SDS011;43580;44.014;20.466;2023-11-22T09:25:13;50.13;;;33.15;;
57746;SDS011;43580;44.014;20.466;2023-11-22T09:27:41;54.08;;;34.95;;
57746;SDS011;43580;44.014;20.466;2023-11-22T09:30:07;47.55;;;29.38;;
57746;SDS011;43580;44.014;20.466;2023-11-22T09:32:43;51.00;;;31.23;;
57746;SDS011;43580;44.014;20.466;2023-11-22T09:35:09;59.97;;;40.42;;
57746;SDS011;43580;44.014;20.466;2023-11-22T09:37:35;61.67;;;41.45;;
57746;SDS011;43580;44.014;20.466;2023-11-22T09:40:03;73.57;;;49.03;;
57746;SDS011;43580;44.014;20.466;2023-11-22T09:42:33;50.60;;;34.65;;
57746;SDS011;43580;44.014;20.466;2023-11-22T09:45:00;32.22;;;21.95;;
57746;SDS011;43580;44.014;20.466;2023-11-22T09:47:26;27.52;;;16.25;;
57746;SDS011;43580;44.014;20.466;2023-11-22T09:49:56;24.60;;;16.50;;
57746;SDS011;43580;44.014;20.466;2023-11-22T09:52:25;23.17;;;15.63;;
57746;SDS011;43580;44.014;20.466;2023-11-22T09:54:54;39.53;;;28.15;;
57746;SDS011;43580;44.014;20.466;2023-11-22T09:57:23;28.58;;;19.35;;
57746;SDS011;43580;44.014;20.466;2023-11-22T09:59:50;36.90;;;24.90;;
57746;SDS011;43580;44.014;20.466;2023-11-22T10:02:18;65.45;;;46.22;;
57746;SDS011;43580;44.014;20.466;2023-11-22T10:04:51;64.28;;;47.53;;
57746;SDS011;43580;44.014;20.466;2023-11-22T10:07:21;47.92;;;35.33;;
57746;SDS011;43580;44.014;20.466;2023-11-22T10:09:47;23.38;;;15.82;;
57746;SDS011;43580;44.014;20.466;2023-11-22T10:12:19;20.63;;;13.57;;
57746;SDS011;43580;44.014;20.466;2023-11-22T10:14:46;172.18;;;82.68;;
57746;SDS011;43580;44.014;20.466;2023-11-22T10:17:17;20.90;;;13.82;;
57746;SDS011;43580;44.014;20.466;2023-11-22T10:19:45;17.90;;;12.63;;
57746;SDS011;43580;44.014;20.466;2023-11-22T10:22:15;17.50;;;13.13;;
57746;SDS011;43580;44.014;20.466;2023-11-22T10:24:42;18.73;;;12.65;;
57746;SDS011;43580;44.014;20.466;2023-11-22T10:27:21;22.13;;;13.20;;
57746;SDS011;43580;44.014;20.466;2023-11-22T10:29:49;17.30;;;9.90;;
57746;SDS011;43580;44.014;20.466;2023-11-22T10:32:16;16.65;;;11.02;;
57746;SDS011;43580;44.014;20.466;2023-11-22T10:34:42;20.73;;;13.68;;
57746;SDS011;43580;44.014;20.466;2023-11-22T10:37:10;14.13;;;8.63;;
57746;SDS011;43580;44.014;20.466;2023-11-22T10:39:39;19.05;;;16.90;;
57746;SDS011;43580;44.014;20.466;2023-11-22T10:42:05;13.50;;;9.80;;
57746;SDS011;43580;44.014;20.466;2023-11-22T10:44:33;21.50;;;17.00;;
57746;SDS011;43580;44.014;20.466;2023-11-22T10:47:04;18.95;;;11.45;;
57746;SDS011;43580;44.014;20.466;2023-11-22T10:49:30;20.20;;;13.70;;
57746;SDS011;43580;44.014;20.466;2023-11-22T10:51:56;16.00;;;10.43;;
57746;SDS011;43580;44.014;20.466;2023-11-22T10:54:22;11.35;;;8.43;;
57746;SDS011;43580;44.014;20.466;2023-11-22T10:56:51;27.70;;;18.65;;
57746;SDS011;43580;44.014;20.466;2023-11-22T10:59:22;19.40;;;14.35;;
57746;SDS011;43580;44.014;20.466;2023-11-22T11:01:49;35.67;;;30.35;;
57746;SDS011;43580;44.014;20.466;2023-11-22T11:04:24;18.10;;;13.85;;
57746;SDS011;43580;44.014;20.466;2023-11-22T11:06:53;19.48;;;14.73;;
57746;SDS011;43580;44.014;20.466;2023-11-22T11:09:23;21.08;;;16.45;;
57746;SDS011;43580;44.014;20.466;2023-11-22T11:11:54;29.58;;;20.50;;
57746;SDS011;43580;44.014;20.466;2023-11-22T11:14:22;32.80;;;22.13;;
57746;SDS011;43580;44.014;20.466;2023-11-22T11:16:48;32.28;;;19.45;;
57746;SDS011;43580;44.014;20.466;2023-11-22T11:19:19;43.80;;;20.50;;
57746;SDS011;43580;44.014;20.466;2023-11-22T11:21:49;47.00;;;27.73;;
57746;SDS011;43580;44.014;20.466;2023-11-22T11:24:17;55.35;;;28.73;;
57746;SDS011;43580;44.014;20.466;2023-11-22T11:26:49;30.67;;;18.10;;
57746;SDS011;43580;44.014;20.466;2023-11-22T11:29:33;22.63;;;14.95;;
57746;SDS011;43580;44.014;20.466;2023-11-22T11:32:03;23.75;;;17.45;;
57746;SDS011;43580;44.014;20.466;2023-11-22T11:34:32;40.08;;;25.48;;
57746;SDS011;43580;44.014;20.466;2023-11-22T11:37:01;22.20;;;15.18;;
57746;SDS011;43580;44.014;20.466;2023-11-22T11:39:29;28.48;;;16.80;;
57746;SDS011;43580;44.014;20.466;2023-11-22T11:42:09;18.83;;;12.65;;
57746;SDS011;43580;44.014;20.466;2023-11-22T11:44:36;21.75;;;16.35;;
57746;SDS011;43580;44.014;20.466;2023-11-22T11:47:10;18.48;;;14.98;;
57746;SDS011;43580;44.014;20.466;2023-11-22T11:49:37;53.20;;;40.92;;
57746;SDS011;43580;44.014;20.466;2023-11-22T11:52:06;70.72;;;55.95;;
57746;SDS011;43580;44.014;20.466;2023-11-22T11:54:33;52.40;;;40.75;;
57746;SDS011;43580;44.014;20.466;2023-11-22T11:57:02;24.08;;;19.92;;
57746;SDS011;43580;44.014;20.466;2023-11-22T11:59:28;23.50;;;21.02;;
57746;SDS011;43580;44.014;20.466;2023-11-22T12:01:55;20.38;;;17.33;;
57746;SDS011;43580;44.014;20.466;2023-11-22T12:04:23;13.13;;;10.27;;
57746;SDS011;43580;44.014;20.466;2023-11-22T12:06:49;23.90;;;18.45;;
57746;SDS011;43580;44.014;20.466;2023-11-22T12:09:26;21.30;;;14.15;;
57746;SDS011;43580;44.014;20.466;2023-11-22T12:11:55;44.40;;;29.52;;
57746;SDS011;43580;44.014;20.466;2023-11-22T12:14:24;23.58;;;17.80;;
57746;SDS011;43580;44.014;20.466;2023-11-22T12:16:51;29.95;;;20.40;;
57746;SDS011;43580;44.014;20.466;2023-11-22T12:19:25;30.70;;;21.15;;
57746;SDS011;43580;44.014;20.466;2023-11-22T12:21:52;30.25;;;21.40;;
57746;SDS011;43580;44.014;20.466;2023-11-22T12:24:18;30.08;;;17.77;;
57746;SDS011;43580;44.014;20.466;2023-11-22T12:26:45;25.45;;;17.40;;
57746;SDS011;43580;44.014;20.466;2023-11-22T12:29:14;31.92;;;20.08;;
57746;SDS011;43580;44.014;20.466;2023-11-22T12:31:46;100.78;;;54.65;;
57746;SDS011;43580;44.014;20.466;2023-11-22T12:34:22;53.90;;;34.30;;
57746;SDS011;43580;44.014;20.466;2023-11-22T12:36:56;28.35;;;19.40;;
57746;SDS011;43580;44.014;20.466;2023-11-22T12:39:22;41.47;;;27.42;;
57746;SDS011;43580;44.014;20.466;2023-11-22T12:41:57;41.38;;;29.08;;
57746;SDS011;43580;44.014;20.466;2023-11-22T12:44:23;38.33;;;27.08;;
57746;SDS011;43580;44.014;20.466;2023-11-22T12:46:53;35.63;;;22.63;;
57746;SDS011;43580;44.014;20.466;2023-11-22T12:49:24;54.80;;;31.92;;
57746;SDS011;43580;44.014;20.466;2023-11-22T12:51:54;35.63;;;22.63;;
57746;SDS011;43580;44.014;20.466;2023-11-22T12:54:23;36.15;;;22.20;;
57746;SDS011;43580;44.014;20.466;2023-11-22T12:56:49;33.38;;;21.33;;
57746;SDS011;43580;44.014;20.466;2023-11-22T12:59:16;31.30;;;20.10;;
57746;SDS011;43580;44.014;20.466;2023-11-22T13:01:43;24.90;;;17.02;;
57746;SDS011;43580;44.014;20.466;2023-11-22T13:04:09;24.02;;;15.50;;
57746;SDS011;43580;44.014;20.466;2023-11-22T13:06:39;28.75;;;18.75;;
57746;SDS011;43580;44.014;20.466;2023-11-22T13:09:05;29.15;;;19.55;;
57746;SDS011;43580;44.014;20.466;2023-11-22T13:11:31;25.88;;;16.33;;
57746;SDS011;43580;44.014;20.466;2023-11-22T13:13:58;41.85;;;29.02;;
57746;SDS011;43580;44.014;20.466;2023-11-22T13:16:24;25.25;;;17.23;;
57746;SDS011;43580;44.014;20.466;2023-11-22T13:18:50;32.78;;;24.88;;
57746;SDS011;43580;44.014;20.466;2023-11-22T13:21:17;33.95;;;20.63;;
57746;SDS011;43580;44.014;20.466;2023-11-22T13:23:43;27.30;;;18.77;;
57746;SDS011;43580;44.014;20.466;2023-11-22T13:26:09;36.45;;;20.63;;
57746;SDS011;43580;44.014;20.466;2023-11-22T13:28:38;40.42;;;25.33;;
57746;SDS011;43580;44.014;20.466;2023-11-22T13:31:06;31.60;;;21.77;;
57746;SDS011;43580;44.014;20.466;2023-11-22T13:33:32;32.05;;;19.80;;
57746;SDS011;43580;44.014;20.466;2023-11-22T13:35:59;24.73;;;15.32;;
57746;SDS011;43580;44.014;20.466;2023-11-22T13:38:25;23.83;;;15.70;;
57746;SDS011;43580;44.014;20.466;2023-11-22T13:40:51;26.75;;;17.15;;
57746;SDS011;43580;44.014;20.466;2023-11-22T13:43:23;22.50;;;15.00;;
57746;SDS011;43580;44.014;20.466;2023-11-22T13:45:52;29.77;;;17.65;;
57746;SDS011;43580;44.014;20.466;2023-11-22T13:48:18;25.35;;;17.52;;
57746;SDS011;43580;44.014;20.466;2023-11-22T13:50:44;23.33;;;17.05;;
57746;SDS011;43580;44.014;20.466;2023-11-22T13:53:10;26.55;;;18.02;;
57746;SDS011;43580;44.014;20.466;2023-11-22T13:55:38;31.90;;;19.17;;
57746;SDS011;43580;44.014;20.466;2023-11-22T13:58:07;26.73;;;17.38;;
57746;SDS011;43580;44.014;20.466;2023-11-22T14:00:34;32.28;;;20.52;;
57746;SDS011;43580;44.014;20.466;2023-11-22T14:03:01;27.90;;;17.45;;
57746;SDS011;43580;44.014;20.466;2023-11-22T14:05:35;24.65;;;15.95;;
57746;SDS011;43580;44.014;20.466;2023-11-22T14:08:02;41.70;;;25.67;;
57746;SDS011;43580;44.014;20.466;2023-11-22T14:10:29;45.28;;;27.70;;